createdAt,value
2018-01-14T00:00:44.912Z,27.6
2018-01-14T00:01:46.732Z,27.6
2018-01-14T00:02:45.019Z,27.6
2018-01-14T00:03:44.875Z,27.6
2018-01-14T00:04:44.928Z,27.6
2018-01-14T00:05:44.992Z,27.6
2018-01-14T00:06:46.980Z,27.6
2018-01-14T00:07:45.135Z,27.6
2018-01-14T00:08:47.301Z,27.6
2018-01-14T00:09:47.404Z,27.6
2018-01-14T00:10:47.440Z,27.6
2018-01-14T00:11:45.361Z,27.6
2018-01-14T00:12:47.366Z,27.6
2018-01-14T00:13:45.568Z,27.6
2018-01-14T00:14:47.485Z,27.6
2018-01-14T00:15:45.844Z,27.6
2018-01-14T00:16:45.801Z,27.6
2018-01-14T00:17:45.878Z,27.6
2018-01-14T00:18:45.957Z,27.6
2018-01-14T00:19:45.784Z,27.6
2018-01-14T00:20:45.870Z,27.6
2018-01-14T00:21:47.970Z,27.6
2018-01-14T00:22:47.976Z,27.6
2018-01-14T00:23:48.089Z,27.6
2018-01-14T00:24:45.992Z,27.6
2018-01-14T00:25:48.120Z,27.6
2018-01-14T00:26:46.244Z,27.6
2018-01-14T00:27:48.027Z,27.6
2018-01-14T00:28:46.259Z,27.6
2018-01-14T00:29:46.110Z,27.6
2018-01-14T00:30:48.323Z,27.6
2018-01-14T00:31:46.430Z,27.6
2018-01-14T00:32:48.466Z,27.6
2018-01-14T00:33:48.477Z,27.6
2018-01-14T00:34:46.439Z,27.6
2018-01-14T00:35:48.656Z,27.6
2018-01-14T00:36:46.559Z,27.6
2018-01-14T00:37:46.641Z,27.6
2018-01-14T00:38:46.910Z,27.6
2018-01-14T00:39:47.005Z,27.6
2018-01-14T00:40:47.061Z,27.6
2018-01-14T00:41:46.874Z,27.6
2018-01-14T00:42:46.925Z,27.6
2018-01-14T00:43:48.928Z,27.6
2018-01-14T00:44:47.035Z,27.6
2018-01-14T00:45:47.236Z,27.6
2018-01-14T00:46:49.292Z,27.6
2018-01-14T00:47:47.215Z,27.6
2018-01-14T00:48:49.370Z,27.6
2018-01-14T00:49:49.385Z,27.6
2018-01-14T00:50:47.449Z,27.5
2018-01-14T00:51:49.188Z,27.6
2018-01-14T00:52:49.283Z,27.5
2018-01-14T00:53:49.274Z,27.6
2018-01-14T00:54:47.435Z,27.6
2018-01-14T00:55:49.661Z,27.6
2018-01-14T00:56:47.548Z,27.6
2018-01-14T00:57:47.635Z,27.6
2018-01-14T00:58:47.706Z,27.6
2018-01-14T00:59:49.612Z,27.6
2018-01-14T01:00:47.763Z,27.6
2018-01-14T01:01:49.967Z,27.6
2018-01-14T01:02:49.877Z,27.6
2018-01-14T01:03:49.969Z,27.6
2018-01-14T01:04:49.999Z,27.6
2018-01-14T01:05:48.093Z,27.6
2018-01-14T01:06:50.276Z,27.6
2018-01-14T01:07:48.364Z,27.6
2018-01-14T01:08:48.470Z,27.6
2018-01-14T01:09:50.384Z,27.6
2018-01-14T01:10:48.326Z,27.6
2018-01-14T01:11:48.387Z,27.6
2018-01-14T01:12:50.552Z,27.6
2018-01-14T01:13:50.611Z,27.6
2018-01-14T01:14:48.535Z,27.6
2018-01-14T01:15:48.862Z,27.6
2018-01-14T01:16:50.820Z,27.6
2018-01-14T01:17:48.799Z,27.6
2018-01-14T01:18:49.027Z,27.5
2018-01-14T01:19:48.896Z,27.6
2018-01-14T01:20:48.899Z,27.6
2018-01-14T01:21:50.838Z,27.6
2018-01-14T01:22:51.132Z,27.6
2018-01-14T01:23:51.114Z,27.5
2018-01-14T01:24:50.930Z,27.6
2018-01-14T01:25:49.006Z,27.6
2018-01-14T01:26:51.002Z,27.6
2018-01-14T01:27:51.042Z,27.6
2018-01-14T01:28:51.310Z,27.5
2018-01-14T01:29:49.398Z,27.6
2018-01-14T01:30:51.373Z,27.6
2018-01-14T01:31:51.410Z,27.5
2018-01-14T01:32:51.484Z,27.5
2018-01-14T01:33:51.262Z,27.5
2018-01-14T01:34:51.267Z,27.5
2018-01-14T01:35:51.641Z,27.5
2018-01-14T01:36:51.433Z,27.5
2018-01-14T01:37:49.795Z,27.5
2018-01-14T01:38:49.893Z,27.5
2018-01-14T01:39:49.972Z,27.5
2018-01-14T01:40:51.757Z,27.5
2018-01-14T01:41:52.044Z,27.5
2018-01-14T01:42:50.192Z,27.5
2018-01-14T01:43:52.227Z,27.5
2018-01-14T01:44:50.151Z,27.5
2018-01-14T01:45:50.411Z,27.5
2018-01-14T01:46:50.291Z,27.5
2018-01-14T01:47:52.439Z,27.6
2018-01-14T01:48:50.309Z,27.6
2018-01-14T01:49:50.350Z,27.5
2018-01-14T01:50:52.553Z,27.6
2018-01-14T01:51:50.636Z,27.5
2018-01-14T01:52:50.713Z,27.6
2018-01-14T01:53:50.571Z,27.5
2018-01-14T01:54:50.585Z,27.5
2018-01-14T01:55:50.618Z,27.5
2018-01-14T01:56:52.599Z,27.5
2018-01-14T01:57:50.787Z,27.5
2018-01-14T01:58:50.847Z,27.5
2018-01-14T01:59:50.961Z,27.5
2018-01-14T02:00:51.011Z,27.5
2018-01-14T02:01:51.041Z,27.5
2018-01-14T02:02:51.076Z,27.5
2018-01-14T02:03:51.341Z,27.5
2018-01-14T02:04:51.120Z,27.5
2018-01-14T02:05:53.339Z,27.5
2018-01-14T02:06:51.477Z,27.5
2018-01-14T02:07:51.521Z,27.5
2018-01-14T02:08:51.411Z,27.5
2018-01-14T02:09:51.411Z,27.5
2018-01-14T02:10:51.502Z,27.5
2018-01-14T02:11:51.557Z,27.5
2018-01-14T02:12:53.763Z,27.5
2018-01-14T02:13:53.782Z,27.5
2018-01-14T02:14:51.670Z,27.5
2018-01-14T02:15:53.610Z,27.5
2018-01-14T02:16:51.767Z,27.5
2018-01-14T02:17:53.752Z,27.5
2018-01-14T02:18:52.076Z,27.5
2018-01-14T02:19:51.880Z,27.5
2018-01-14T02:20:51.940Z,27.5
2018-01-14T02:21:54.166Z,27.5
2018-01-14T02:22:52.010Z,27.5
2018-01-14T02:23:54.204Z,27.5
2018-01-14T02:24:54.042Z,27.5
2018-01-14T02:25:52.187Z,27.5
2018-01-14T02:26:54.402Z,27.5
2018-01-14T02:27:54.439Z,27.5
2018-01-14T02:28:52.568Z,27.5
2018-01-14T02:29:54.275Z,27.5
2018-01-14T02:30:52.439Z,27.5
2018-01-14T02:31:54.380Z,27.5
2018-01-14T02:32:54.677Z,27.5
2018-01-14T02:33:52.521Z,27.5
2018-01-14T02:34:52.603Z,27.5
2018-01-14T02:35:52.892Z,27.5
2018-01-14T02:36:54.601Z,27.5
2018-01-14T02:37:52.746Z,27.5
2018-01-14T02:38:52.818Z,27.5
2018-01-14T02:39:52.819Z,27.5
2018-01-14T02:40:52.822Z,27.5
2018-01-14T02:41:52.879Z,27.5
2018-01-14T02:42:55.005Z,27.5
2018-01-14T02:43:53.096Z,27.5
2018-01-14T02:44:55.061Z,27.5
2018-01-14T02:45:53.150Z,27.5
2018-01-14T02:46:55.153Z,27.5
2018-01-14T02:47:53.266Z,27.5
2018-01-14T02:48:53.076Z,27.5
2018-01-14T02:49:53.152Z,27.5
2018-01-14T02:50:55.294Z,27.5
2018-01-14T02:51:53.486Z,27.5
2018-01-14T02:52:53.520Z,27.5
2018-01-14T02:53:55.530Z,27.5
2018-01-14T02:54:53.628Z,27.5
2018-01-14T02:55:55.623Z,27.5
2018-01-14T02:56:55.466Z,27.5
2018-01-14T02:57:53.795Z,27.5
2018-01-14T02:58:53.677Z,27.5
2018-01-14T02:59:53.932Z,27.5
2018-01-14T03:00:55.922Z,27.5
2018-01-14T03:01:54.020Z,27.5
2018-01-14T03:02:54.035Z,27.5
2018-01-14T03:03:53.872Z,27.5
2018-01-14T03:04:54.091Z,27.5
2018-01-14T03:05:56.063Z,27.5
2018-01-14T03:06:54.237Z,27.5
2018-01-14T03:07:54.134Z,27.5
2018-01-14T03:08:54.364Z,27.5
2018-01-14T03:09:54.445Z,27.5
2018-01-14T03:10:56.459Z,27.5
2018-01-14T03:11:56.495Z,27.5
2018-01-14T03:12:54.436Z,27.5
2018-01-14T03:13:54.512Z,27.5
2018-01-14T03:14:54.617Z,27.5
2018-01-14T03:15:54.951Z,27.5
2018-01-14T03:16:54.754Z,27.5
2018-01-14T03:17:54.809Z,27.5
2018-01-14T03:18:54.812Z,27.5
2018-01-14T03:19:54.828Z,27.5
2018-01-14T03:20:56.836Z,27.5
2018-01-14T03:21:55.169Z,27.5
2018-01-14T03:22:55.039Z,27.4
2018-01-14T03:23:57.233Z,27.4
2018-01-14T03:24:56.994Z,27.4
2018-01-14T03:25:57.304Z,27.4
2018-01-14T03:26:55.218Z,27.4
2018-01-14T03:27:57.368Z,27.4
2018-01-14T03:28:57.416Z,27.5
2018-01-14T03:29:57.478Z,27.5
2018-01-14T03:30:57.484Z,27.5
2018-01-14T03:31:55.612Z,27.5
2018-01-14T03:32:57.380Z,27.5
2018-01-14T03:33:57.406Z,27.5
2018-01-14T03:34:55.721Z,27.5
2018-01-14T03:35:57.733Z,27.5
2018-01-14T03:36:55.698Z,27.5
2018-01-14T03:37:57.746Z,27.5
2018-01-14T03:38:55.624Z,27.5
2018-01-14T03:39:55.691Z,27.5
2018-01-14T03:40:55.932Z,27.5
2018-01-14T03:41:55.813Z,27.5
2018-01-14T03:42:55.866Z,27.5
2018-01-14T03:43:57.981Z,27.5
2018-01-14T03:44:58.057Z,27.5
2018-01-14T03:45:56.154Z,27.5
2018-01-14T03:46:58.140Z,27.5
2018-01-14T03:47:56.089Z,27.5
2018-01-14T03:48:58.233Z,27.5
2018-01-14T03:49:56.161Z,27.5
2018-01-14T03:50:56.413Z,27.5
2018-01-14T03:51:56.490Z,27.5
2018-01-14T03:52:56.506Z,27.5
2018-01-14T03:53:56.366Z,27.4
2018-01-14T03:54:58.593Z,27.4
2018-01-14T03:55:56.450Z,27.4
2018-01-14T03:56:56.467Z,27.4
2018-01-14T03:57:58.705Z,27.4
2018-01-14T03:58:58.679Z,27.4
2018-01-14T03:59:56.616Z,27.4
2018-01-14T04:00:56.659Z,27.4
2018-01-14T04:01:56.899Z,27.4
2018-01-14T04:02:56.775Z,27.4
2018-01-14T04:03:58.977Z,27.4
2018-01-14T04:04:56.911Z,27.4
2018-01-14T04:05:56.975Z,27.4
2018-01-14T04:06:57.030Z,27.5
2018-01-14T04:07:57.386Z,27.5
2018-01-14T04:08:57.159Z,27.5
2018-01-14T04:09:57.185Z,27.5
2018-01-14T04:10:59.170Z,27.5
2018-01-14T04:11:59.266Z,27.4
2018-01-14T04:12:57.658Z,27.5
2018-01-14T04:13:59.645Z,27.5
2018-01-14T04:14:59.725Z,27.5
2018-01-14T04:15:57.592Z,27.5
2018-01-14T04:16:59.841Z,27.5
2018-01-14T04:17:57.677Z,27.5
2018-01-14T04:18:58.004Z,27.5
2018-01-14T04:19:58.000Z,27.4
2018-01-14T04:20:58.040Z,27.4
2018-01-14T04:21:57.918Z,27.5
2018-01-14T04:22:58.210Z,27.4
2018-01-14T04:23:58.064Z,27.4
2018-01-14T04:24:58.318Z,27.4
2018-01-14T04:26:00.107Z,27.4
2018-01-14T04:26:58.237Z,27.4
2018-01-14T04:28:00.132Z,27.4
2018-01-14T04:28:58.250Z,27.4
2018-01-14T04:29:58.323Z,27.4
2018-01-14T04:30:58.618Z,27.4
2018-01-14T04:31:58.696Z,27.4
2018-01-14T04:33:00.697Z,27.5
2018-01-14T04:33:58.673Z,27.5
2018-01-14T04:34:58.743Z,27.5
2018-01-14T04:36:00.907Z,27.4
2018-01-14T04:36:58.869Z,27.4
2018-01-14T04:37:58.918Z,27.4
2018-01-14T04:38:59.226Z,27.4
2018-01-14T04:39:59.116Z,27.4
2018-01-14T04:40:59.370Z,27.4
2018-01-14T04:42:01.316Z,27.4
2018-01-14T04:43:01.292Z,27.4
2018-01-14T04:43:59.251Z,27.4
2018-01-14T04:44:59.323Z,27.4
2018-01-14T04:45:59.348Z,27.4
2018-01-14T04:46:59.629Z,27.4
2018-01-14T04:47:59.499Z,27.4
2018-01-14T04:48:59.746Z,27.4
2018-01-14T04:49:59.525Z,27.4
2018-01-14T04:51:01.726Z,27.4
2018-01-14T04:51:59.678Z,27.4
2018-01-14T04:52:59.975Z,27.4
2018-01-14T04:53:59.838Z,27.4
2018-01-14T04:55:00.102Z,27.4
2018-01-14T04:55:59.999Z,27.4
2018-01-14T04:57:00.186Z,27.4
2018-01-14T04:58:02.194Z,27.4
2018-01-14T04:59:00.341Z,27.4
2018-01-14T05:00:00.206Z,27.4
2018-01-14T05:01:02.122Z,27.4
2018-01-14T05:02:02.129Z,27.4
2018-01-14T05:03:00.482Z,27.4
2018-01-14T05:04:00.322Z,27.4
2018-01-14T05:05:02.321Z,27.4
2018-01-14T05:06:02.385Z,27.4
2018-01-14T05:07:02.646Z,27.4
2018-01-14T05:08:02.500Z,27.4
2018-01-14T05:09:02.618Z,27.4
2018-01-14T05:10:00.979Z,27.4
2018-01-14T05:11:02.724Z,27.4
2018-01-14T05:12:00.990Z,27.4
2018-01-14T05:13:02.737Z,27.4
2018-01-14T05:14:03.022Z,27.4
2018-01-14T05:15:00.889Z,27.4
2018-01-14T05:16:00.897Z,27.4
2018-01-14T05:17:00.956Z,27.4
2018-01-14T05:18:01.049Z,27.4
2018-01-14T05:19:02.978Z,27.4
2018-01-14T05:20:01.156Z,27.4
2018-01-14T05:21:03.279Z,27.4
2018-01-14T05:22:01.358Z,27.4
2018-01-14T05:23:03.377Z,27.4
2018-01-14T05:24:01.245Z,27.4
2018-01-14T05:25:03.408Z,27.4
2018-01-14T05:26:03.208Z,27.4
2018-01-14T05:27:03.522Z,27.4
2018-01-14T05:28:01.553Z,27.4
2018-01-14T05:29:03.670Z,27.4
2018-01-14T05:30:01.572Z,27.4
2018-01-14T05:31:03.541Z,27.4
2018-01-14T05:32:01.910Z,27.4
2018-01-14T05:33:01.783Z,27.4
2018-01-14T05:34:04.009Z,27.4
2018-01-14T05:35:04.007Z,27.4
2018-01-14T05:36:01.861Z,27.4
2018-01-14T05:37:03.990Z,27.4
2018-01-14T05:38:01.887Z,27.4
2018-01-14T05:39:03.886Z,27.4
2018-01-14T05:40:03.904Z,27.4
2018-01-14T05:41:02.268Z,27.4
2018-01-14T05:42:02.271Z,27.4
2018-01-14T05:43:02.354Z,27.4
2018-01-14T05:44:02.464Z,27.4
2018-01-14T05:45:04.223Z,27.4
2018-01-14T05:46:04.435Z,27.4
2018-01-14T05:47:02.624Z,27.4
2018-01-14T05:48:04.365Z,27.4
2018-01-14T05:49:02.538Z,27.4
2018-01-14T05:50:02.646Z,27.4
2018-01-14T05:51:02.823Z,27.4
2018-01-14T05:52:04.796Z,27.4
2018-01-14T05:53:04.876Z,27.4
2018-01-14T05:54:04.871Z,27.4
2018-01-14T05:55:04.669Z,27.4
2018-01-14T05:56:02.839Z,27.4
2018-01-14T05:57:02.860Z,27.4
2018-01-14T05:58:05.085Z,27.4
2018-01-14T05:59:05.123Z,27.4
2018-01-14T06:00:03.054Z,27.4
2018-01-14T06:01:03.097Z,27.4
2018-01-14T06:02:03.347Z,27.4
2018-01-14T06:03:03.472Z,27.4
2018-01-14T06:04:03.468Z,27.4
2018-01-14T06:05:05.260Z,27.4
2018-01-14T06:06:03.618Z,27.4
2018-01-14T06:07:03.447Z,27.4
2018-01-14T06:08:03.707Z,27.4
2018-01-14T06:09:03.751Z,27.4
2018-01-14T06:10:05.786Z,27.4
2018-01-14T06:11:03.649Z,27.4
2018-01-14T06:12:03.884Z,27.4
2018-01-14T06:13:03.927Z,27.4
2018-01-14T06:14:04.018Z,27.3
2018-01-14T06:15:06.015Z,27.3
2018-01-14T06:16:03.942Z,27.3
2018-01-14T06:17:03.971Z,27.3
2018-01-14T06:18:04.198Z,27.3
2018-01-14T06:19:04.050Z,27.3
2018-01-14T06:20:06.191Z,27.3
2018-01-14T06:21:04.142Z,27.3
2018-01-14T06:22:06.297Z,27.3
2018-01-14T06:23:04.248Z,27.3
2018-01-14T06:24:06.384Z,27.3
2018-01-14T06:25:04.500Z,27.3
2018-01-14T06:26:04.315Z,27.3
2018-01-14T06:27:04.319Z,27.3
2018-01-14T06:28:04.374Z,27.3
2018-01-14T06:29:06.513Z,27.3
2018-01-14T06:30:04.640Z,27.3
2018-01-14T06:31:06.672Z,27.3
2018-01-14T06:32:06.717Z,27.3
2018-01-14T06:33:06.499Z,27.3
2018-01-14T06:34:06.796Z,27.4
2018-01-14T06:35:04.749Z,27.3
2018-01-14T06:36:04.966Z,27.3
2018-01-14T06:37:04.789Z,27.3
2018-01-14T06:38:04.853Z,27.3
2018-01-14T06:39:04.884Z,27.3
2018-01-14T06:40:05.186Z,27.3
2018-01-14T06:41:07.150Z,27.3
2018-01-14T06:42:05.117Z,27.3
2018-01-14T06:43:05.377Z,27.3
2018-01-14T06:44:07.398Z,27.3
2018-01-14T06:45:05.590Z,27.3
2018-01-14T06:46:05.603Z,27.3
2018-01-14T06:47:05.428Z,27.3
2018-01-14T06:48:05.454Z,27.3
2018-01-14T06:49:07.434Z,27.3
2018-01-14T06:50:07.489Z,27.3
2018-01-14T06:51:07.536Z,27.3
2018-01-14T06:52:07.549Z,27.3
2018-01-14T06:53:05.621Z,27.3
2018-01-14T06:54:07.560Z,27.3
2018-01-14T06:55:07.828Z,27.3
2018-01-14T06:56:07.909Z,27.3
2018-01-14T06:57:06.006Z,27.3
2018-01-14T06:58:07.983Z,27.3
2018-01-14T06:59:05.961Z,27.3
2018-01-14T07:00:08.124Z,27.3
2018-01-14T07:01:08.166Z,27.3
2018-01-14T07:02:06.265Z,27.3
2018-01-14T07:03:08.215Z,27.3
2018-01-14T07:04:06.309Z,27.3
2018-01-14T07:05:06.381Z,27.3
2018-01-14T07:06:08.368Z,27.3
2018-01-14T07:07:06.289Z,27.3
2018-01-14T07:08:06.571Z,27.3
2018-01-14T07:09:08.555Z,27.3
2018-01-14T07:10:06.502Z,27.3
2018-01-14T07:11:06.597Z,27.3
2018-01-14T07:12:08.812Z,27.3
2018-01-14T07:13:06.897Z,27.3
2018-01-14T07:14:06.725Z,27.3
2018-01-14T07:15:06.810Z,27.3
2018-01-14T07:16:06.886Z,27.3
2018-01-14T07:17:06.908Z,27.3
2018-01-14T07:18:07.157Z,27.3
2018-01-14T07:19:09.071Z,27.3
2018-01-14T07:20:06.999Z,27.3
2018-01-14T07:21:07.265Z,27.3
2018-01-14T07:22:09.162Z,27.3
2018-01-14T07:23:07.301Z,27.3
2018-01-14T07:24:07.150Z,27.3
2018-01-14T07:25:09.408Z,27.3
2018-01-14T07:26:09.439Z,27.3
2018-01-14T07:27:07.373Z,27.3
2018-01-14T07:28:07.588Z,27.3
2018-01-14T07:29:07.603Z,27.3
2018-01-14T07:30:07.504Z,27.3
2018-01-14T07:31:07.712Z,27.3
2018-01-14T07:32:07.798Z,27.3
2018-01-14T07:33:07.595Z,27.3
2018-01-14T07:34:07.870Z,27.3
2018-01-14T07:35:07.744Z,27.3
2018-01-14T07:36:07.758Z,27.3
2018-01-14T07:37:07.737Z,27.3
2018-01-14T07:38:07.989Z,27.3
2018-01-14T07:39:08.090Z,27.2
2018-01-14T07:40:07.931Z,27.2
2018-01-14T07:41:10.149Z,27.2
2018-01-14T07:42:09.933Z,27.2
2018-01-14T07:43:08.062Z,27.3
2018-01-14T07:44:10.242Z,27.2
2018-01-14T07:45:10.315Z,27.3
2018-01-14T07:46:08.388Z,27.2
2018-01-14T07:47:08.473Z,27.2
2018-01-14T07:48:10.511Z,27.2
2018-01-14T07:49:08.377Z,27.2
2018-01-14T07:50:08.644Z,27.2
2018-01-14T07:51:10.592Z,27.2
2018-01-14T07:52:08.525Z,27.2
2018-01-14T07:53:08.840Z,27.2
2018-01-14T07:54:08.797Z,27.2
2018-01-14T07:55:10.751Z,27.2
2018-01-14T07:56:08.690Z,27.2
2018-01-14T07:57:08.729Z,27.2
2018-01-14T07:58:08.832Z,27.2
2018-01-14T07:59:09.160Z,27.3
2018-01-14T08:00:09.214Z,27.3
2018-01-14T08:01:09.053Z,27.2
2018-01-14T08:02:09.125Z,27.3
2018-01-14T08:03:09.180Z,27.2
2018-01-14T08:04:09.293Z,27.2
2018-01-14T08:05:11.236Z,27.2
2018-01-14T08:06:09.555Z,27.2
2018-01-14T08:07:11.505Z,27.2
2018-01-14T08:08:09.644Z,27.2
2018-01-14T08:09:09.700Z,27.2
2018-01-14T08:10:11.730Z,27.2
2018-01-14T08:11:09.672Z,27.2
2018-01-14T08:12:09.720Z,27.2
2018-01-14T08:13:09.959Z,27.2
2018-01-14T08:14:09.832Z,27.2
2018-01-14T08:15:12.027Z,27.2
2018-01-14T08:16:09.887Z,27.2
2018-01-14T08:17:10.191Z,27.2
2018-01-14T08:18:09.989Z,27.2
2018-01-14T08:19:10.097Z,27.2
2018-01-14T08:20:10.173Z,27.2
2018-01-14T08:21:10.143Z,27.2
2018-01-14T08:22:10.462Z,27.2
2018-01-14T08:23:10.515Z,27.2
2018-01-14T08:24:12.478Z,27.1
2018-01-14T08:25:10.350Z,27.2
2018-01-14T08:26:10.395Z,27.2
2018-01-14T08:27:10.425Z,27.1
2018-01-14T08:28:12.597Z,27.1
2018-01-14T08:29:10.531Z,27.1
2018-01-14T08:30:12.663Z,27.1
2018-01-14T08:31:10.718Z,27.1
2018-01-14T08:32:10.761Z,27.1
2018-01-14T08:33:10.873Z,27.1
2018-01-14T08:34:12.766Z,27.1
2018-01-14T08:35:10.647Z,27.1
2018-01-14T08:36:10.874Z,27.1
2018-01-14T08:37:12.851Z,27.1
2018-01-14T08:38:10.805Z,27.1
2018-01-14T08:39:10.886Z,27.1
2018-01-14T08:40:11.135Z,27.1
2018-01-14T08:41:10.978Z,27.1
2018-01-14T08:42:13.149Z,27.1
2018-01-14T08:43:11.076Z,27.1
2018-01-14T08:44:16.755Z,27.1
2018-01-14T08:45:11.428Z,27.1
2018-01-14T08:46:11.255Z,27.1
2018-01-14T08:47:13.174Z,27.1
2018-01-14T08:48:11.573Z,27.1
2018-01-14T08:49:11.368Z,27
2018-01-14T08:50:11.437Z,27
2018-01-14T08:51:11.477Z,27
2018-01-14T08:52:13.480Z,27
2018-01-14T08:53:11.572Z,27
2018-01-14T08:54:11.825Z,27
2018-01-14T08:55:13.612Z,27
2018-01-14T08:56:13.915Z,27
2018-01-14T08:57:11.866Z,27
2018-01-14T08:58:12.150Z,27
2018-01-14T08:59:12.017Z,27
2018-01-14T09:00:12.130Z,27
2018-01-14T09:01:14.061Z,27
2018-01-14T09:02:12.182Z,27
2018-01-14T09:03:12.232Z,27
2018-01-14T09:04:12.474Z,26.9
2018-01-14T09:05:12.407Z,27
2018-01-14T09:06:12.608Z,26.9
2018-01-14T09:07:12.667Z,26.9
2018-01-14T09:08:12.632Z,27
2018-01-14T09:09:14.633Z,27
2018-01-14T09:10:12.582Z,26.9
2018-01-14T09:11:12.836Z,26.9
2018-01-14T09:12:12.733Z,26.9
2018-01-14T09:13:12.702Z,26.9
2018-01-14T09:14:12.778Z,26.9
2018-01-14T09:15:13.032Z,26.9
2018-01-14T09:16:14.765Z,26.9
2018-01-14T09:17:13.114Z,26.9
2018-01-14T09:18:13.222Z,26.9
2018-01-14T09:19:14.931Z,26.9
2018-01-14T09:20:15.219Z,26.9
2018-01-14T09:21:15.210Z,26.9
2018-01-14T09:22:15.027Z,26.9
2018-01-14T09:23:13.117Z,26.9
2018-01-14T09:24:13.414Z,26.9
2018-01-14T09:25:15.418Z,26.9
2018-01-14T09:26:15.494Z,26.8
2018-01-14T09:27:13.341Z,26.8
2018-01-14T09:28:13.432Z,26.8
2018-01-14T09:29:13.524Z,26.8
2018-01-14T09:30:13.577Z,26.8
2018-01-14T09:31:15.495Z,26.8
2018-01-14T09:32:15.776Z,26.8
2018-01-14T09:33:13.757Z,26.8
2018-01-14T09:34:13.786Z,26.8
2018-01-14T09:35:15.749Z,26.7
2018-01-14T09:36:13.916Z,26.7
2018-01-14T09:37:16.142Z,26.7
2018-01-14T09:38:13.996Z,26.7
2018-01-14T09:39:14.268Z,26.7
2018-01-14T09:40:14.135Z,26.7
2018-01-14T09:41:14.244Z,26.7
2018-01-14T09:42:16.438Z,26.7
2018-01-14T09:43:14.387Z,26.6
2018-01-14T09:44:14.451Z,26.6
2018-01-14T09:45:14.565Z,26.6
2018-01-14T09:46:16.697Z,26.6
2018-01-14T09:47:14.635Z,26.6
2018-01-14T09:48:16.838Z,26.6
2018-01-14T09:49:14.986Z,26.6
2018-01-14T09:50:14.852Z,26.6
2018-01-14T09:51:16.998Z,26.6
2018-01-14T09:52:14.995Z,26.6
2018-01-14T09:53:15.000Z,26.5
2018-01-14T09:54:17.135Z,26.5
2018-01-14T09:55:15.056Z,26.5
2018-01-14T09:56:16.980Z,26.5
2018-01-14T09:57:15.338Z,26.5
2018-01-14T09:58:15.159Z,26.5
2018-01-14T09:59:15.225Z,26.5
2018-01-14T10:00:17.201Z,26.5
2018-01-14T10:01:15.367Z,26.5
2018-01-14T10:02:17.633Z,26.5
2018-01-14T10:03:15.489Z,26.5
2018-01-14T10:04:17.417Z,26.5
2018-01-14T10:05:17.495Z,26.4
2018-01-14T10:06:15.606Z,26.4
2018-01-14T10:07:15.640Z,26.4
2018-01-14T10:08:15.751Z,26.4
2018-01-14T10:09:15.771Z,26.3
2018-01-14T10:10:15.835Z,26.3
2018-01-14T10:11:15.849Z,26.3
2018-01-14T10:12:18.074Z,26.3
2018-01-14T10:13:16.208Z,26.2
2018-01-14T10:14:18.003Z,26.2
2018-01-14T10:15:18.229Z,26.2
2018-01-14T10:16:16.168Z,26.1
2018-01-14T10:17:16.344Z,26.1
